Time;durP1;ratioP1;P1;durP2;ratioP2;P2;SDS_P1;SDS_P2;PMS_P1;PMS_P2;Temp;Humidity;BMP_temperature;BMP_pressure;BME280_temperature;BME280_humidity;BME280_pressure;Samples;Min_cycle;Max_cycle;Signal;HPM_P1;HPM_P2
2022/03/08 00:00:22;;;;;;;7.82;5.75;;;3.70;99.90;;;;;;5054509;28;20478;-75
2022/03/08 00:02:48;;;;;;;8.25;5.47;;;3.60;99.90;;;;;;5037586;28;20532;-76
2022/03/08 00:05:14;;;;;;;8.95;5.18;;;3.60;99.90;;;;;;5037400;28;20077;-75
2022/03/08 00:07:40;;;;;;;8.85;5.50;;;3.60;99.90;;;;;;5054327;28;20086;-75
2022/03/08 00:10:08;;;;;;;9.38;5.78;;;3.50;99.90;;;;;;5054527;28;20049;-75
2022/03/08 00:12:34;;;;;;;9.18;5.93;;;3.50;99.90;;;;;;5053870;28;20069;-76
2022/03/08 00:15:00;;;;;;;8.23;5.43;;;3.50;99.90;;;;;;5053965;28;20083;-76
2022/03/08 00:17:26;;;;;;;8.27;4.93;;;3.50;99.90;;;;;;5036121;28;20098;-76
2022/03/08 00:19:52;;;;;;;7.15;5.30;;;3.40;99.90;;;;;;5053845;28;20041;-76
2022/03/08 00:22:17;;;;;;;11.32;6.50;;;3.40;99.90;;;;;;5053733;28;20037;-76
2022/03/08 00:24:43;;;;;;;8.02;5.55;;;3.40;99.90;;;;;;5053729;28;20041;-76
2022/03/08 00:27:09;;;;;;;9.43;5.30;;;3.30;99.90;;;;;;5037155;28;20041;-74
2022/03/08 00:29:34;;;;;;;8.35;5.82;;;3.30;99.90;;;;;;5053736;28;20037;-74
2022/03/08 00:32:00;;;;;;;9.77;5.32;;;3.20;99.90;;;;;;5053820;28;20033;-75
2022/03/08 00:34:26;;;;;;;7.85;5.35;;;3.20;99.90;;;;;;5053624;28;20568;-76
2022/03/08 00:36:51;;;;;;;6.60;4.97;;;3.10;99.90;;;;;;5053805;28;20071;-76
2022/03/08 00:39:18;;;;;;;8.35;5.25;;;3.00;99.90;;;;;;5053517;28;20045;-75
2022/03/08 00:41:45;;;;;;;9.35;5.65;;;3.00;99.90;;;;;;5053368;28;20083;-76
2022/03/08 00:44:10;;;;;;;8.48;5.38;;;2.90;99.90;;;;;;5053599;28;20052;-76
2022/03/08 00:46:36;;;;;;;7.40;5.50;;;2.90;99.90;;;;;;5053572;28;20041;-76
2022/03/08 00:49:02;;;;;;;9.93;5.43;;;2.90;99.90;;;;;;5036746;28;20043;-76
2022/03/08 00:51:29;;;;;;;8.38;5.70;;;2.90;99.90;;;;;;5053244;28;20041;-76
2022/03/08 00:53:54;;;;;;;9.45;6.25;;;2.90;99.90;;;;;;5053206;28;20045;-76
2022/03/08 00:56:20;;;;;;;9.25;5.20;;;2.90;99.90;;;;;;5053159;28;20041;-76
2022/03/08 00:58:45;;;;;;;6.95;5.28;;;2.90;99.90;;;;;;5053159;28;20044;-75
2022/03/08 01:01:11;;;;;;;8.75;6.00;;;2.90;99.90;;;;;;5053299;28;20080;-76
2022/03/08 01:03:37;;;;;;;8.50;6.10;;;2.80;99.90;;;;;;5036663;28;20037;-76
2022/03/08 01:06:02;;;;;;;8.65;5.80;;;2.80;99.90;;;;;;5053012;28;20084;-76
2022/03/08 01:08:28;;;;;;;10.27;5.90;;;2.70;99.90;;;;;;5052951;28;20069;-75
2022/03/08 01:10:53;;;;;;;8.20;5.45;;;2.70;99.90;;;;;;5052968;28;20037;-76
2022/03/08 01:13:19;;;;;;;8.77;5.60;;;2.70;99.90;;;;;;5053420;28;20493;-76
2022/03/08 01:15:45;;;;;;;12.10;6.00;;;2.70;99.90;;;;;;5052799;28;20135;-76
2022/03/08 01:18:11;;;;;;;8.95;5.90;;;2.70;99.90;;;;;;5052762;28;20041;-76
2022/03/08 01:20:38;;;;;;;9.60;6.45;;;2.60;99.90;;;;;;5052650;28;20128;-76
2022/03/08 01:23:03;;;;;;;7.65;5.18;;;2.60;99.90;;;;;;5052669;28;20136;-76
2022/03/08 01:25:29;;;;;;;8.43;5.60;;;2.60;99.90;;;;;;5052574;28;20472;-76
2022/03/08 01:27:55;;;;;;;8.27;5.40;;;2.50;99.90;;;;;;5052244;28;20029;-76
2022/03/08 01:30:23;;;;;;;10.10;6.15;;;2.50;99.90;;;;;;5052449;28;20121;-77
2022/03/08 01:32:48;;;;;;;10.07;5.60;;;2.50;99.90;;;;;;5052540;28;20555;-75
2022/03/08 01:35:15;;;;;;;8.77;6.32;;;2.50;99.90;;;;;;5052456;28;20049;-75
2022/03/08 01:37:41;;;;;;;9.88;6.30;;;2.40;99.90;;;;;;5036043;28;20383;-75
2022/03/08 01:40:09;;;;;;;11.10;6.20;;;2.40;99.90;;;;;;5052331;28;20048;-75
2022/03/08 01:42:34;;;;;;;7.82;5.43;;;2.40;99.90;;;;;;5052521;28;20063;-75
2022/03/08 01:45:00;;;;;;;8.45;6.13;;;2.30;99.90;;;;;;5052305;28;20505;-76
2022/03/08 01:47:26;;;;;;;8.43;5.65;;;2.20;99.90;;;;;;5052223;28;20420;-75
2022/03/08 01:49:53;;;;;;;9.23;6.05;;;2.20;99.90;;;;;;5052193;28;20040;-75
2022/03/08 01:52:24;;;;;;;10.07;6.40;;;2.20;99.90;;;;;;5052072;28;20570;-76
2022/03/08 01:54:50;;;;;;;10.90;6.20;;;2.20;99.90;;;;;;5052346;28;20041;-76
2022/03/08 01:57:16;;;;;;;10.38;6.57;;;2.20;99.90;;;;;;5035539;28;20489;-76
2022/03/08 01:59:42;;;;;;;12.73;7.05;;;2.10;99.90;;;;;;5052112;28;20040;-76
2022/03/08 02:02:10;;;;;;;11.27;6.53;;;2.20;99.90;;;;;;5051979;28;20045;-75
2022/03/08 02:04:35;;;;;;;11.25;7.45;;;2.20;99.90;;;;;;5051931;28;20041;-75
2022/03/08 02:07:02;;;;;;;11.48;7.07;;;2.20;99.90;;;;;;5051931;28;20107;-75
2022/03/08 02:09:27;;;;;;;9.95;6.93;;;2.20;99.90;;;;;;5051974;28;20079;-75
2022/03/08 02:11:53;;;;;;;10.70;7.72;;;2.20;99.90;;;;;;5051656;28;20068;-76
2022/03/08 02:14:19;;;;;;;10.52;7.28;;;2.20;99.90;;;;;;5051821;28;20040;-76
2022/03/08 02:16:45;;;;;;;10.40;7.38;;;2.20;99.90;;;;;;5035512;28;20404;-76
2022/03/08 02:19:13;;;;;;;11.20;6.97;;;2.20;99.90;;;;;;5052048;28;20033;-75
2022/03/08 02:21:39;;;;;;;9.95;7.35;;;2.20;99.90;;;;;;5051683;28;20056;-76
2022/03/08 02:24:05;;;;;;;11.55;8.10;;;2.30;99.90;;;;;;5051689;28;20408;-76
2022/03/08 02:26:33;;;;;;;11.10;7.78;;;2.30;99.90;;;;;;5035163;28;20036;-76
2022/03/08 02:29:00;;;;;;;12.35;8.27;;;2.30;99.90;;;;;;5051928;28;20108;-75
2022/03/08 02:31:26;;;;;;;12.18;8.30;;;2.30;99.90;;;;;;5035246;28;20531;-76
2022/03/08 02:33:52;;;;;;;15.05;8.07;;;2.30;99.90;;;;;;5051628;28;20037;-76
2022/03/08 02:36:18;;;;;;;12.15;8.48;;;2.30;99.90;;;;;;5051659;28;20037;-75
2022/03/08 02:38:44;;;;;;;12.18;8.27;;;2.30;99.90;;;;;;5051589;28;20060;-75
2022/03/08 02:41:09;;;;;;;11.68;8.20;;;2.30;99.90;;;;;;5054078;28;20115;-76
2022/03/08 02:43:35;;;;;;;13.98;8.82;;;2.30;99.90;;;;;;5055685;28;20043;-76
2022/03/08 02:46:01;;;;;;;12.85;8.80;;;2.30;99.90;;;;;;5055510;28;20044;-76
2022/03/08 02:48:29;;;;;;;12.60;8.27;;;2.40;99.90;;;;;;5039008;28;20063;-75
2022/03/08 02:50:55;;;;;;;12.38;8.18;;;2.30;99.90;;;;;;5055543;28;20452;-75
2022/03/08 02:53:20;;;;;;;11.15;8.13;;;2.30;99.90;;;;;;5055517;28;20069;-76
2022/03/08 02:55:46;;;;;;;11.43;8.45;;;2.30;99.90;;;;;;5055776;28;20091;-75
2022/03/08 02:58:12;;;;;;;13.65;8.57;;;2.30;99.90;;;;;;5055705;28;20404;-75
2022/03/08 03:00:38;;;;;;;12.35;8.77;;;2.30;99.90;;;;;;5055358;28;20473;-76
2022/03/08 03:03:05;;;;;;;12.25;8.25;;;2.30;99.90;;;;;;5055406;28;20041;-76
2022/03/08 03:05:31;;;;;;;12.73;8.32;;;2.20;99.90;;;;;;5038658;28;20051;-76
2022/03/08 03:07:57;;;;;;;10.70;8.13;;;2.20;99.90;;;;;;5055206;28;20040;-76
2022/03/08 03:10:24;;;;;;;11.35;8.30;;;2.20;99.90;;;;;;5055109;28;20029;-76
2022/03/08 03:12:51;;;;;;;11.05;7.82;;;2.20;99.90;;;;;;5055342;28;20047;-76
2022/03/08 03:15:18;;;;;;;16.02;8.73;;;2.20;99.90;;;;;;5055144;28;20041;-76
2022/03/08 03:17:45;;;;;;;12.98;8.82;;;2.20;99.90;;;;;;5055095;28;20052;-76
2022/03/08 03:20:12;;;;;;;16.08;8.63;;;2.20;99.90;;;;;;5038364;28;20519;-76
2022/03/08 03:22:38;;;;;;;13.02;8.90;;;2.20;99.90;;;;;;5055188;28;20041;-76
2022/03/08 03:25:05;;;;;;;13.73;9.18;;;2.20;99.90;;;;;;5054804;28;20045;-76
2022/03/08 03:27:30;;;;;;;13.13;9.00;;;2.20;99.90;;;;;;5038411;28;20059;-76
2022/03/08 03:29:56;;;;;;;14.18;9.27;;;2.20;99.90;;;;;;5055057;28;20123;-75
2022/03/08 03:32:23;;;;;;;13.05;9.27;;;2.10;99.90;;;;;;5054675;28;20532;-76
2022/03/08 03:34:49;;;;;;;14.73;9.18;;;2.10;99.90;;;;;;5054763;28;20049;-75
2022/03/08 03:37:15;;;;;;;11.93;8.80;;;2.00;99.90;;;;;;5054962;28;20041;-75
2022/03/08 03:39:41;;;;;;;15.00;9.20;;;2.00;99.90;;;;;;5054671;28;20039;-75
2022/03/08 03:42:07;;;;;;;12.10;8.60;;;2.00;99.90;;;;;;5054799;28;20066;-76
2022/03/08 03:44:32;;;;;;;13.30;9.10;;;2.00;99.90;;;;;;5054379;28;20041;-76
2022/03/08 03:46:58;;;;;;;13.05;9.00;;;1.90;99.90;;;;;;5054490;28;20123;-76
2022/03/08 03:49:23;;;;;;;13.82;9.25;;;1.90;99.90;;;;;;5054543;28;20409;-75
2022/03/08 03:51:51;;;;;;;14.90;9.88;;;1.90;99.90;;;;;;5054178;28;20110;-76
2022/03/08 03:54:23;;;;;;;13.80;9.70;;;1.90;99.90;;;;;;5054654;28;20060;-76
2022/03/08 03:56:48;;;;;;;14.38;9.85;;;1.90;99.90;;;;;;5037728;28;20044;-76
2022/03/08 03:59:14;;;;;;;13.57;9.52;;;1.90;99.90;;;;;;5037586;28;20060;-76
2022/03/08 04:01:40;;;;;;;15.50;10.25;;;1.90;99.90;;;;;;5054425;28;20041;-76
2022/03/08 04:04:06;;;;;;;16.38;10.23;;;1.80;99.90;;;;;;5054124;28;20493;-76
2022/03/08 04:06:32;;;;;;;14.48;10.30;;;1.90;99.90;;;;;;5037579;28;20029;-76
2022/03/08 04:08:58;;;;;;;14.18;9.60;;;1.90;99.90;;;;;;5054114;28;20040;-76
2022/03/08 04:11:24;;;;;;;15.27;10.60;;;1.90;99.90;;;;;;5054114;28;20033;-76
2022/03/08 04:13:49;;;;;;;16.42;10.90;;;1.90;99.90;;;;;;5054027;28;20033;-75
2022/03/08 04:16:15;;;;;;;17.73;10.52;;;1.90;99.90;;;;;;5053964;28;20521;-75
2022/03/08 04:18:41;;;;;;;14.07;10.73;;;1.90;99.90;;;;;;5037674;28;20053;-75
2022/03/08 04:21:06;;;;;;;14.88;10.48;;;1.90;99.90;;;;;;5053805;28;20041;-76
2022/03/08 04:23:32;;;;;;;15.27;10.27;;;1.90;99.90;;;;;;5053825;28;20036;-76
2022/03/08 04:25:57;;;;;;;14.50;10.30;;;1.90;99.90;;;;;;5053764;28;20045;-75
2022/03/08 04:28:23;;;;;;;15.45;10.65;;;1.90;99.90;;;;;;5054033;28;20370;-75
2022/03/08 04:30:49;;;;;;;15.18;10.98;;;1.90;99.90;;;;;;5053635;28;20424;-76
2022/03/08 04:33:14;;;;;;;16.23;10.93;;;1.90;99.90;;;;;;5037022;28;20094;-76
2022/03/08 04:35:40;;;;;;;16.67;11.63;;;1.90;99.90;;;;;;5053619;28;20090;-75
2022/03/08 04:38:05;;;;;;;14.93;10.93;;;1.80;99.90;;;;;;5036988;28;20041;-75
2022/03/08 04:40:31;;;;;;;14.68;10.30;;;1.80;99.90;;;;;;5053467;28;20048;-75
2022/03/08 04:42:56;;;;;;;16.05;10.88;;;1.90;99.90;;;;;;5053520;28;20037;-75
2022/03/08 04:45:22;;;;;;;15.80;12.13;;;1.80;99.90;;;;;;5053808;28;20048;-75
2022/03/08 04:47:48;;;;;;;16.92;11.23;;;1.80;99.90;;;;;;5036818;28;20526;-75
2022/03/08 04:50:16;;;;;;;15.68;10.95;;;1.80;99.90;;;;;;5053344;28;20040;-75
2022/03/08 04:52:46;;;;;;;17.75;11.25;;;1.80;99.90;;;;;;5036683;28;20037;-75
2022/03/08 04:55:13;;;;;;;14.80;11.10;;;1.80;99.90;;;;;;5053472;28;20516;-75
2022/03/08 04:57:38;;;;;;;14.65;11.07;;;1.80;99.90;;;;;;5053182;28;20045;-75
2022/03/08 05:00:06;;;;;;;15.90;11.15;;;1.80;99.90;;;;;;5053386;28;20044;-75
2022/03/08 05:02:32;;;;;;;17.42;10.70;;;1.70;99.90;;;;;;5052527;28;20052;-76
2022/03/08 05:04:57;;;;;;;15.88;10.27;;;1.70;99.90;;;;;;5053037;28;20041;-75
2022/03/08 05:07:23;;;;;;;15.75;11.25;;;1.70;99.90;;;;;;5052998;28;20117;-75
2022/03/08 05:09:49;;;;;;;13.60;10.45;;;1.70;99.90;;;;;;5052886;28;20063;-76
2022/03/08 05:12:14;;;;;;;15.75;10.80;;;1.60;99.90;;;;;;5053231;28;20124;-75
2022/03/08 05:14:40;;;;;;;15.43;11.50;;;1.60;99.90;;;;;;5052798;28;20037;-76
2022/03/08 05:17:06;;;;;;;15.02;10.68;;;1.60;99.90;;;;;;5052773;28;20036;-75
2022/03/08 05:19:31;;;;;;;16.52;11.13;;;1.60;99.90;;;;;;5053035;28;20087;-75
2022/03/08 05:21:57;;;;;;;14.80;11.63;;;1.50;99.90;;;;;;5052926;28;20405;-76
2022/03/08 05:24:23;;;;;;;15.57;11.18;;;1.50;99.90;;;;;;5052657;28;20437;-75
2022/03/08 05:26:48;;;;;;;17.38;11.65;;;1.50;99.90;;;;;;5036306;28;20043;-75
2022/03/08 05:29:14;;;;;;;15.00;11.70;;;1.50;99.90;;;;;;5052631;28;20029;-75
2022/03/08 05:31:39;;;;;;;14.43;11.77;;;1.50;99.90;;;;;;5052446;28;20124;-75
2022/03/08 05:34:05;;;;;;;15.95;11.88;;;1.50;99.90;;;;;;5052799;28;20039;-75
2022/03/08 05:36:31;;;;;;;16.55;10.85;;;1.50;99.90;;;;;;5052482;28;20037;-75
2022/03/08 05:38:56;;;;;;;14.80;10.68;;;1.50;99.90;;;;;;5052638;28;20048;-76
2022/03/08 05:41:22;;;;;;;15.90;10.45;;;1.50;99.90;;;;;;5052566;28;20041;-75
2022/03/08 05:43:48;;;;;;;15.32;10.30;;;1.50;99.90;;;;;;5052347;28;20040;-75
2022/03/08 05:46:13;;;;;;;15.05;11.05;;;1.40;99.90;;;;;;5052224;28;20128;-76
2022/03/08 05:48:39;;;;;;;16.83;10.88;;;1.40;99.90;;;;;;5035923;28;20040;-75
2022/03/08 05:51:05;;;;;;;15.30;11.38;;;1.40;99.90;;;;;;5052472;28;20040;-75
2022/03/08 05:53:30;;;;;;;15.60;10.48;;;1.40;99.90;;;;;;5052495;28;20048;-75
2022/03/08 05:55:56;;;;;;;15.15;11.07;;;1.30;99.90;;;;;;5035566;28;20041;-75
2022/03/08 05:58:22;;;;;;;15.45;11.38;;;1.30;99.90;;;;;;5035561;28;20131;-75
2022/03/08 06:00:48;;;;;;;13.57;10.18;;;1.30;99.90;;;;;;5051876;28;20040;-76
2022/03/08 06:03:13;;;;;;;14.25;10.70;;;1.30;99.90;;;;;;5052310;28;20453;-75
2022/03/08 06:05:39;;;;;;;15.93;11.02;;;1.30;99.90;;;;;;5035386;28;20048;-74
2022/03/08 06:08:05;;;;;;;16.00;10.65;;;1.30;99.90;;;;;;5051940;28;20072;-74
2022/03/08 06:10:32;;;;;;;14.85;10.80;;;1.30;99.90;;;;;;5035137;28;20091;-75
2022/03/08 06:12:57;;;;;;;15.32;10.85;;;1.30;99.90;;;;;;5035526;28;20052;-75
2022/03/08 06:15:23;;;;;;;14.85;10.70;;;1.30;99.90;;;;;;5034375;28;20071;-75
2022/03/08 06:17:48;;;;;;;14.63;10.07;;;1.30;99.90;;;;;;5035506;28;20043;-75
2022/03/08 06:20:14;;;;;;;15.07;10.75;;;1.30;99.90;;;;;;5035458;28;20135;-75
2022/03/08 06:22:40;;;;;;;16.50;10.82;;;1.30;99.90;;;;;;5018593;28;20417;-75
2022/03/08 06:25:07;;;;;;;14.02;10.02;;;1.30;99.90;;;;;;5035098;28;20090;-75
2022/03/08 06:27:32;;;;;;;14.05;10.15;;;1.30;99.90;;;;;;5035028;28;20524;-75
2022/03/08 06:29:58;;;;;;;16.13;10.65;;;1.40;99.90;;;;;;5035346;28;20068;-75
2022/03/08 06:32:24;;;;;;;14.82;10.88;;;1.40;99.90;;;;;;5035080;28;20408;-75
2022/03/08 06:34:52;;;;;;;14.75;10.05;;;1.40;99.90;;;;;;5035371;28;20410;-75
2022/03/08 06:37:18;;;;;;;13.93;10.13;;;1.40;99.90;;;;;;5034999;28;20048;-75
2022/03/08 06:39:45;;;;;;;13.35;9.93;;;1.40;99.90;;;;;;5034964;28;20516;-75
2022/03/08 06:42:11;;;;;;;15.98;9.98;;;1.40;99.90;;;;;;5018511;28;20041;-75
2022/03/08 06:44:39;;;;;;;16.52;10.23;;;1.40;99.90;;;;;;5035073;28;20047;-76
2022/03/08 06:47:06;;;;;;;12.48;9.70;;;1.50;99.90;;;;;;5035169;28;20048;-76
2022/03/08 06:49:32;;;;;;;16.85;10.35;;;1.50;99.90;;;;;;5034931;28;20047;-75
2022/03/08 06:51:58;;;;;;;14.77;10.25;;;1.50;99.90;;;;;;5034789;28;20436;-76
2022/03/08 06:54:23;;;;;;;14.15;9.98;;;1.50;99.90;;;;;;5034919;28;20102;-75
2022/03/08 06:56:49;;;;;;;16.77;10.60;;;1.60;99.90;;;;;;5034937;28;20048;-75
2022/03/08 06:59:15;;;;;;;16.48;11.00;;;1.60;99.90;;;;;;5035173;28;20037;-75
2022/03/08 07:01:41;;;;;;;15.18;10.25;;;1.60;99.90;;;;;;5034868;28;20386;-75
2022/03/08 07:04:06;;;;;;;12.82;10.05;;;1.70;99.90;;;;;;5018961;28;20072;-75
2022/03/08 07:06:32;;;;;;;14.38;10.80;;;1.70;99.90;;;;;;5035204;28;20124;-75
2022/03/08 07:08:58;;;;;;;18.75;11.23;;;1.80;99.90;;;;;;5035090;28;20486;-75
2022/03/08 07:11:24;;;;;;;14.95;9.73;;;1.80;99.90;;;;;;5038821;28;20036;-75
2022/03/08 07:13:50;;;;;;;14.30;10.07;;;1.90;99.90;;;;;;5051909;28;20048;-75
2022/03/08 07:16:15;;;;;;;14.55;10.02;;;1.90;99.90;;;;;;5051287;28;20044;-75
2022/03/08 07:18:41;;;;;;;13.93;10.70;;;2.00;99.90;;;;;;5051318;28;20049;-75
2022/03/08 07:21:06;;;;;;;13.90;9.82;;;2.00;99.90;;;;;;5051434;28;20135;-75
2022/03/08 07:23:32;;;;;;;12.10;9.70;;;2.00;99.90;;;;;;5051417;28;20037;-75
2022/03/08 07:25:58;;;;;;;15.35;9.85;;;2.10;99.90;;;;;;5051581;28;20079;-75
2022/03/08 07:28:24;;;;;;;15.48;9.43;;;2.10;99.90;;;;;;5038332;28;20118;-75
2022/03/08 07:30:49;;;;;;;15.15;10.10;;;2.20;99.90;;;;;;5038410;28;20044;-75
2022/03/08 07:33:15;;;;;;;13.32;9.52;;;2.20;99.90;;;;;;5055325;28;20037;-76
2022/03/08 07:35:40;;;;;;;12.20;9.32;;;2.30;99.90;;;;;;5054702;28;20041;-76
2022/03/08 07:38:06;;;;;;;12.00;9.43;;;2.40;99.90;;;;;;5054960;28;20119;-75
2022/03/08 07:40:31;;;;;;;15.02;10.35;;;2.40;99.90;;;;;;5054843;28;20052;-76
2022/03/08 07:42:57;;;;;;;12.20;9.57;;;2.50;99.90;;;;;;5054852;28;20075;-76
2022/03/08 07:45:23;;;;;;;15.35;10.27;;;2.50;99.90;;;;;;5054468;28;20490;-76
2022/03/08 07:47:48;;;;;;;12.32;9.30;;;2.60;99.90;;;;;;5054517;28;20094;-76
2022/03/08 07:50:15;;;;;;;12.90;9.73;;;2.70;99.90;;;;;;5054502;28;20037;-76
2022/03/08 07:52:41;;;;;;;15.40;9.68;;;2.70;99.90;;;;;;5054331;28;20041;-76
2022/03/08 07:55:08;;;;;;;12.75;9.63;;;2.80;99.90;;;;;;5054399;28;20051;-76
2022/03/08 07:57:34;;;;;;;13.68;9.77;;;2.90;99.90;;;;;;5037729;28;20041;-76
2022/03/08 08:00:00;;;;;;;15.57;9.77;;;2.90;99.90;;;;;;5037714;28;20099;-76
2022/03/08 08:02:25;;;;;;;13.95;9.15;;;3.00;99.90;;;;;;5054155;28;20402;-76
2022/03/08 08:04:52;;;;;;;12.23;9.35;;;3.10;99.90;;;;;;5054133;28;20045;-76
2022/03/08 08:07:17;;;;;;;18.92;9.52;;;3.20;99.90;;;;;;5054469;28;20051;-75
2022/03/08 08:09:43;;;;;;;12.32;8.95;;;3.20;99.90;;;;;;5054422;28;20037;-75
2022/03/08 08:12:08;;;;;;;17.17;9.77;;;3.30;99.90;;;;;;5053842;28;20521;-75
2022/03/08 08:14:34;;;;;;;14.07;9.32;;;3.40;99.90;;;;;;5054256;28;20096;-75
2022/03/08 08:17:00;;;;;;;10.85;8.93;;;3.40;99.90;;;;;;5037379;28;20413;-74
2022/03/08 08:19:26;;;;;;;13.77;8.85;;;3.50;99.90;;;;;;5054366;28;20071;-77
2022/03/08 08:21:51;;;;;;;14.05;9.00;;;3.60;99.90;;;;;;5053820;28;20055;-74
2022/03/08 08:24:17;;;;;;;14.50;9.25;;;3.70;99.90;;;;;;5054055;28;20053;-74
2022/03/08 08:26:43;;;;;;;13.05;8.95;;;3.80;99.90;;;;;;5053725;28;20409;-74
2022/03/08 08:29:09;;;;;;;12.52;8.93;;;3.90;99.90;;;;;;5037133;28;20033;-74
2022/03/08 08:31:34;;;;;;;11.70;9.30;;;4.10;99.90;;;;;;5053936;28;20033;-74
2022/03/08 08:34:00;;;;;;;10.00;7.85;;;4.30;99.90;;;;;;5053935;28;20501;-74
2022/03/08 08:36:25;;;;;;;10.77;7.65;;;5.20;99.90;;;;;;5053606;28;20449;-74
2022/03/08 08:38:51;;;;;;;9.82;7.43;;;6.90;96.10;;;;;;5052501;28;20045;-74
2022/03/08 08:41:16;;;;;;;9.90;7.80;;;8.50;77.50;;;;;;5053422;28;20132;-74
2022/03/08 08:43:42;;;;;;;11.15;8.68;;;10.00;67.50;;;;;;5053765;28;20060;-74
2022/03/08 08:46:08;;;;;;;10.32;7.85;;;11.10;60.70;;;;;;5053387;28;20040;-74
2022/03/08 08:48:35;;;;;;;10.30;8.02;;;12.00;56.90;;;;;;5037141;28;20528;-74
2022/03/08 08:51:01;;;;;;;9.27;7.80;;;12.70;54.20;;;;;;5053286;28;20029;-74
2022/03/08 08:53:26;;;;;;;9.48;7.78;;;13.40;52.30;;;;;;5053287;28;20063;-74
2022/03/08 08:55:52;;;;;;;11.50;7.80;;;14.10;50.80;;;;;;5036962;28;20047;-74
2022/03/08 08:58:18;;;;;;;10.07;7.38;;;14.50;48.80;;;;;;5036639;28;20390;-74
2022/03/08 09:00:43;;;;;;;12.75;7.60;;;15.00;48.00;;;;;;5053358;28;20049;-74
2022/03/08 09:03:14;;;;;;;11.13;7.25;;;15.50;47.10;;;;;;5053339;28;20409;-74
2022/03/08 09:05:42;;;;;;;9.60;7.00;;;15.80;46.10;;;;;;5053038;28;20040;-74
2022/03/08 09:08:07;;;;;;;10.45;7.13;;;16.10;45.30;;;;;;5053040;28;20087;-74
2022/03/08 09:10:33;;;;;;;7.28;6.25;;;16.40;44.40;;;;;;5036443;28;20041;-74
2022/03/08 09:12:59;;;;;;;9.80;6.78;;;16.40;43.10;;;;;;5036253;28;20413;-74
2022/03/08 09:15:24;;;;;;;8.80;6.50;;;16.60;43.00;;;;;;5036648;28;20378;-74
2022/03/08 09:17:50;;;;;;;8.77;6.38;;;16.80;42.40;;;;;;5019848;28;20033;-74
2022/03/08 09:20:16;;;;;;;8.88;6.13;;;17.00;42.10;;;;;;5036193;28;20041;-74
2022/03/08 09:22:41;;;;;;;8.30;6.38;;;17.10;41.60;;;;;;5036406;28;20044;-75
2022/03/08 09:25:08;;;;;;;7.32;6.10;;;17.30;40.70;;;;;;5036035;28;20548;-75
2022/03/08 09:27:34;;;;;;;10.07;5.75;;;17.50;39.90;;;;;;5036266;28;20040;-75
2022/03/08 09:30:00;;;;;;;7.20;5.53;;;17.60;40.00;;;;;;5019989;28;20119;-73
2022/03/08 09:32:26;;;;;;;9.52;5.93;;;17.70;39.70;;;;;;5036445;28;20037;-80
2022/03/08 09:34:51;;;;;;;6.65;5.57;;;17.70;39.20;;;;;;5036201;28;20044;-80
2022/03/08 09:37:17;;;;;;;7.10;5.50;;;17.90;38.80;;;;;;5036407;28;20456;-76
2022/03/08 09:39:43;;;;;;;8.60;5.65;;;18.00;38.50;;;;;;5035768;28;20036;-76
2022/03/08 09:42:09;;;;;;;9.13;5.82;;;18.00;37.90;;;;;;5035736;28;20135;-76
2022/03/08 09:44:36;;;;;;;8.13;5.60;;;18.30;37.90;;;;;;5019187;28;20047;-76
2022/03/08 09:47:02;;;;;;;6.07;5.18;;;18.30;37.20;;;;;;5035664;28;20485;-76
2022/03/08 09:49:27;;;;;;;6.72;5.30;;;18.40;37.00;;;;;;5035375;28;20041;-76
2022/03/08 09:51:53;;;;;;;8.90;5.13;;;18.40;36.70;;;;;;5035787;28;20098;-76
2022/03/08 09:54:20;;;;;;;9.02;5.55;;;18.50;37.00;;;;;;5035859;28;20147;-76
2022/03/08 09:56:46;;;;;;;8.93;5.13;;;18.50;36.10;;;;;;5035580;28;20037;-76
2022/03/08 09:59:19;;;;;;;7.72;5.35;;;18.50;36.30;;;;;;5035404;28;20036;-76
2022/03/08 10:01:45;;;;;;;;;;;18.60;36.50;;;;;;5035987;28;20386;-76
2022/03/08 10:04:18;;;;;;;7.72;4.82;;;18.70;36.70;;;;;;5035529;28;20020;-76
2022/03/08 10:06:44;;;;;;;;;;;18.60;35.70;;;;;;5019612;28;20048;-76
2022/03/08 10:09:16;;;;;;;5.95;4.90;;;18.50;35.10;;;;;;5036203;28;19923;-76
2022/03/08 10:11:43;;;;;;;8.07;5.00;;;18.60;35.90;;;;;;5041762;28;20509;-76
2022/03/08 10:14:26;;;;;;;6.53;4.72;;;18.70;35.60;;;;;;5051900;28;20072;-76
2022/03/08 10:16:52;;;;;;;5.43;4.78;;;18.80;35.60;;;;;;5051948;28;20124;-76
2022/03/08 10:19:18;;;;;;;8.20;5.28;;;18.80;35.20;;;;;;5052102;28;20045;-76
2022/03/08 10:21:45;;;;;;;9.25;5.28;;;18.90;35.20;;;;;;5051794;28;20048;-76
2022/03/08 10:24:22;;;;;;;7.13;5.38;;;19.20;35.00;;;;;;5035272;28;20033;-76
2022/03/08 10:27:03;;;;;;;7.43;5.07;;;19.40;34.40;;;;;;5052006;28;20036;-76
2022/03/08 10:29:34;;;;;;;9.18;5.68;;;19.40;33.80;;;;;;5051765;28;20055;-76
2022/03/08 10:32:05;;;;;;;6.53;4.85;;;19.30;34.20;;;;;;5051922;28;20063;-76
2022/03/08 10:34:31;;;;;;;8.82;5.00;;;19.20;33.50;;;;;;5035022;28;20047;-76
2022/03/08 10:36:59;;;;;;;6.97;4.68;;;19.10;33.70;;;;;;5035133;28;20128;-76
2022/03/08 10:39:25;;;;;;;7.05;4.60;;;19.10;34.10;;;;;;5051645;28;20041;-76
2022/03/08 10:41:54;;;;;;;12.75;5.70;;;18.80;34.20;;;;;;5051576;28;20113;-76
2022/03/08 10:44:37;;;;;;;6.88;5.18;;;18.90;34.10;;;;;;5051765;28;20505;-76
2022/03/08 10:47:04;;;;;;;5.88;4.90;;;18.90;34.30;;;;;;5051690;28;20033;-76
2022/03/08 10:49:30;;;;;;;8.48;5.30;;;19.00;34.10;;;;;;5051740;28;20045;-76
2022/03/08 10:52:00;;;;;;;7.07;4.90;;;18.90;34.00;;;;;;5051459;28;20398;-76
2022/03/08 10:54:26;;;;;;;6.65;4.88;;;18.50;34.20;;;;;;5051521;28;20085;-76
2022/03/08 10:56:52;;;;;;;9.40;5.13;;;18.50;35.20;;;;;;5051505;28;20467;-76
2022/03/08 10:59:18;;;;;;;7.75;4.72;;;18.60;35.50;;;;;;5034818;28;20044;-76
2022/03/08 11:01:44;;;;;;;6.85;4.28;;;18.60;35.00;;;;;;5053126;28;20037;-76
2022/03/08 11:04:27;;;;;;;5.55;4.20;;;18.40;35.10;;;;;;5055262;28;20040;-76
2022/03/08 11:06:55;;;;;;;6.95;4.88;;;18.30;34.90;;;;;;5055443;28;20144;-76
2022/03/08 11:09:22;;;;;;;8.90;4.45;;;18.20;35.00;;;;;;5055248;28;20545;-76
2022/03/08 11:11:48;;;;;;;5.72;4.28;;;17.90;35.60;;;;;;5038611;28;20041;-76
2022/03/08 11:14:14;;;;;;;5.65;3.50;;;17.80;35.80;;;;;;5055197;28;20405;-76
2022/03/08 11:16:40;;;;;;;6.78;4.15;;;17.70;35.70;;;;;;5055082;28;20036;-76
2022/03/08 11:19:06;;;;;;;5.07;3.55;;;17.40;35.30;;;;;;5055327;28;20547;-76
2022/03/08 11:21:34;;;;;;;5.97;3.50;;;17.00;35.90;;;;;;5038329;28;20033;-75
2022/03/08 11:24:03;;;;;;;4.38;3.58;;;16.30;36.50;;;;;;5038367;28;20040;-75
2022/03/08 11:26:29;;;;;;;5.13;3.88;;;15.90;37.10;;;;;;5054811;28;20041;-75
2022/03/08 11:28:55;;;;;;;6.28;3.95;;;15.80;37.80;;;;;;5055151;28;20086;-75
2022/03/08 11:31:30;;;;;;;5.10;4.15;;;15.80;38.10;;;;;;5055006;28;20139;-75
2022/03/08 11:34:08;;;;;;;6.18;3.67;;;15.90;38.50;;;;;;5055166;28;20041;-75
2022/03/08 11:36:47;;;;;;;6.43;3.85;;;16.10;37.70;;;;;;5055052;28;20032;-75
2022/03/08 11:39:19;;;;;;;5.45;4.30;;;16.30;38.00;;;;;;5054993;28;20051;-75
2022/03/08 11:41:47;;;;;;;6.82;3.90;;;16.40;37.40;;;;;;5054617;28;20447;-75
2022/03/08 11:44:39;;;;;;;6.22;4.05;;;16.60;37.70;;;;;;5054505;28;20505;-75
2022/03/08 11:47:15;;;;;;;4.32;3.47;;;16.60;37.20;;;;;;5051690;28;20048;-74
2022/03/08 11:49:42;;;;;;;4.93;3.83;;;16.80;37.90;;;;;;5054484;28;20121;-75
2022/03/08 11:52:17;;;;;;;5.97;3.90;;;16.80;37.40;;;;;;5054420;28;20041;-75
2022/03/08 11:54:54;;;;;;;4.30;3.63;;;17.00;37.40;;;;;;5054455;28;20037;-76
2022/03/08 11:57:41;;;;;;;4.57;3.58;;;17.00;37.10;;;;;;5037714;28;20489;-75
2022/03/08 12:00:27;;;;;;;5.70;4.00;;;17.00;37.10;;;;;;5054560;28;20420;-75
2022/03/08 12:02:56;;;;;;;5.40;3.78;;;16.70;37.30;;;;;;5054303;28;20555;-75
2022/03/08 12:05:41;;;;;;;5.72;3.65;;;16.80;38.30;;;;;;5054231;28;20044;-75
2022/03/08 12:08:24;;;;;;;4.35;3.42;;;17.00;37.10;;;;;;5054454;28;20553;-75
2022/03/08 12:10:57;;;;;;;5.43;3.80;;;17.10;36.10;;;;;;5037623;28;20131;-75
2022/03/08 12:13:24;;;;;;;4.57;3.50;;;17.00;37.20;;;;;;5020982;28;20043;-75
2022/03/08 12:16:05;;;;;;;4.93;3.78;;;17.10;37.10;;;;;;5020961;28;20119;-75
2022/03/08 12:18:49;;;;;;;4.30;3.42;;;17.40;36.60;;;;;;5037400;28;20051;-76
2022/03/08 12:21:14;;;;;;;4.22;3.30;;;17.50;36.30;;;;;;5020712;28;20123;-76
2022/03/08 12:24:04;;;;;;;6.60;3.30;;;17.60;36.70;;;;;;5037271;28;20128;-76
2022/03/08 12:26:48;;;;;;;6.28;3.10;;;17.60;35.60;;;;;;5037153;28;20045;-76
2022/03/08 12:29:29;;;;;;;5.97;3.08;;;17.50;34.60;;;;;;5037265;28;20048;-76
2022/03/08 12:32:04;;;;;;;4.93;2.95;;;17.40;35.80;;;;;;5037154;28;20040;-76
2022/03/08 12:34:33;;;;;;;4.78;2.95;;;17.50;36.50;;;;;;5037380;28;20493;-76
2022/03/08 12:37:04;;;;;;;4.50;2.90;;;17.50;36.00;;;;;;5037228;28;20421;-76
2022/03/08 12:39:51;;;;;;;5.22;2.97;;;17.60;35.80;;;;;;5037209;28;20060;-76
2022/03/08 12:42:23;;;;;;;4.72;2.80;;;17.60;35.50;;;;;;5037124;28;20493;-76
2022/03/08 12:44:55;;;;;;;3.97;3.08;;;17.60;35.90;;;;;;5036790;28;20072;-76